메인 페이지
METAR-TAF:

METAR-TAF

공항 :

Air_Force_Base

Plattsburgh, 뉴욕, 미국

위도: 44-39N, 경도: 073-28W, 고도: 72m

현재 날씨관측

예보는 51분 전, 10:53시(UTC)에 발표되었습니다.
남남동6kt
온도 -5°C
습도 86%
기압 1009 hPa
시정: 9.7km
고도 5000ft 상공 흐림
약한눈, 박무

METAR: KPBG 031053Z AUTO 16006KT 6SM -SN BR OVC050 M05/M07 A2979 RMK AO2 SNB33 SLP092 P0000 T10501072 $

시각: 06:44 (11:44 UTC)

예보

예보는 14분 전, 11:30시(UTC)에 발표되었습니다.
예보 대상 시간: 03일 12시부터 04일 12시까지 (UTC)
여러 방향의 바람 3kt
시정: 10km
고도 4000ft 상공 구름 많음
시계 내 소나기
일시적
03일 12시부터 03일 15시까지 (UTC)
시정: 4.8km
고도 3000ft 상공 흐림
약한소낙눈, 박무
03일 1700시부터 (UTC)
북북서5kt
시정: 10km
고도 4500ft 상공 흐림
시계 내 소나기
03일 2200시부터 (UTC)
북북동5kt
시정: 10km
고도 1800ft 상공 흐림
04일 0300시부터 (UTC)
여러 방향의 바람 3kt
시정: 10km
고도 2100ft 상공 구름 많음
04일 0600시부터 (UTC)
북북서6kt
시정: 10km
고도 4000ft 상공 구름 보통

TAF: KPBG 031130Z 0312/0412 VRB03KT P6SM VCSH BKN040 TEMPO 0312/0315 3SM -SHSN BR OVC030 FM031700 34005KT P6SM VCSH OVC045 FM032200 02005KT P6SM OVC018 FM040300 VRB03KT P6SM BKN021 FM040600 34006KT P6SM SCT040

4,000개 이상의 공항 관측 자료 및 예보 (METAR 및 TAF 보고).

지도상에서 검색 가능한 기상관측소가 노란 점과 빨간 점으로 표시되어 있습니다.

기상관측소 명을 보려면 표시 위로 마우스를 이동하세요.

날씨 관측과 예보를 보려면 클릭하세요.

지도 변경 : 확대하려면 엑스 표시가 있는 녹색 버튼, 축소하려면 빼기 표시가 있는 녹색 버튼, 다음 페이지의 지도를 보려면 녹색 화살표를 클릭하세요.


METAR-TAF: